sensor_id;sensor_type;location;lat;lon;timestamp;temperature;humidity
59282;DHT22;45054;52.062;10.010;2023-04-30T00:02:08;6.90;99.90
59282;DHT22;45054;52.062;10.010;2023-04-30T00:04:34;6.80;99.90
59282;DHT22;45054;52.062;10.010;2023-04-30T00:06:59;6.80;99.90
59282;DHT22;45054;52.062;10.010;2023-04-30T00:09:25;6.80;99.90
59282;DHT22;45054;52.062;10.010;2023-04-30T00:11:50;6.80;99.90
59282;DHT22;45054;52.062;10.010;2023-04-30T00:14:16;6.80;99.90
59282;DHT22;45054;52.062;10.010;2023-04-30T00:16:42;6.90;99.90
59282;DHT22;45054;52.062;10.010;2023-04-30T00:19:08;6.90;99.90
59282;DHT22;45054;52.062;10.010;2023-04-30T00:21:33;6.90;99.90
59282;DHT22;45054;52.062;10.010;2023-04-30T00:23:59;6.90;99.90
59282;DHT22;45054;52.062;10.010;2023-04-30T00:26:24;6.90;99.90
59282;DHT22;45054;52.062;10.010;2023-04-30T00:28:50;6.90;99.90
59282;DHT22;45054;52.062;10.010;2023-04-30T00:31:15;6.80;99.90
59282;DHT22;45054;52.062;10.010;2023-04-30T00:33:42;6.80;99.90
59282;DHT22;45054;52.062;10.010;2023-04-30T00:36:07;6.60;99.90
59282;DHT22;45054;52.062;10.010;2023-04-30T00:38:33;6.50;99.90
59282;DHT22;45054;52.062;10.010;2023-04-30T00:40:58;6.50;99.90
59282;DHT22;45054;52.062;10.010;2023-04-30T00:43:24;6.50;99.90
59282;DHT22;45054;52.062;10.010;2023-04-30T00:45:49;6.30;99.90
59282;DHT22;45054;52.062;10.010;2023-04-30T00:48:15;6.30;99.90
59282;DHT22;45054;52.062;10.010;2023-04-30T00:50:42;6.20;99.90
59282;DHT22;45054;52.062;10.010;2023-04-30T00:53:07;6.10;99.90
59282;DHT22;45054;52.062;10.010;2023-04-30T00:55:33;6.10;99.90
59282;DHT22;45054;52.062;10.010;2023-04-30T00:57:58;6.00;99.90
59282;DHT22;45054;52.062;10.010;2023-04-30T01:00:24;6.00;99.90
59282;DHT22;45054;52.062;10.010;2023-04-30T01:02:50;6.00;99.90
59282;DHT22;45054;52.062;10.010;2023-04-30T01:05:16;5.90;99.90
59282;DHT22;45054;52.062;10.010;2023-04-30T01:07:43;5.80;99.90
59282;DHT22;45054;52.062;10.010;2023-04-30T01:10:09;5.80;99.90
59282;DHT22;45054;52.062;10.010;2023-04-30T01:12:36;5.80;99.90
59282;DHT22;45054;52.062;10.010;2023-04-30T01:15:03;5.80;99.90
59282;DHT22;45054;52.062;10.010;2023-04-30T01:17:32;5.70;99.90
59282;DHT22;45054;52.062;10.010;2023-04-30T01:19:58;5.60;99.90
59282;DHT22;45054;52.062;10.010;2023-04-30T01:22:35;5.60;99.90
59282;DHT22;45054;52.062;10.010;2023-04-30T01:25:06;5.60;99.90
59282;DHT22;45054;52.062;10.010;2023-04-30T01:27:53;5.60;99.90
59282;DHT22;45054;52.062;10.010;2023-04-30T01:30:25;5.50;99.90
59282;DHT22;45054;52.062;10.010;2023-04-30T01:32:51;5.50;99.90
59282;DHT22;45054;52.062;10.010;2023-04-30T01:35:16;5.50;99.90
59282;DHT22;45054;52.062;10.010;2023-04-30T01:37:43;5.50;99.90
59282;DHT22;45054;52.062;10.010;2023-04-30T01:40:17;5.40;99.90
59282;DHT22;45054;52.062;10.010;2023-04-30T01:42:49;5.30;99.90
59282;DHT22;45054;52.062;10.010;2023-04-30T01:45:29;5.30;99.90
59282;DHT22;45054;52.062;10.010;2023-04-30T01:48:01;5.20;99.90
59282;DHT22;45054;52.062;10.010;2023-04-30T01:50:28;5.20;99.90
59282;DHT22;45054;52.062;10.010;2023-04-30T01:52:56;5.10;99.90
59282;DHT22;45054;52.062;10.010;2023-04-30T01:55:23;5.20;99.90
59282;DHT22;45054;52.062;10.010;2023-04-30T01:57:53;5.30;99.90
59282;DHT22;45054;52.062;10.010;2023-04-30T02:00:19;5.30;99.90
59282;DHT22;45054;52.062;10.010;2023-04-30T02:02:46;5.30;99.90
59282;DHT22;45054;52.062;10.010;2023-04-30T02:05:12;5.30;99.90
59282;DHT22;45054;52.062;10.010;2023-04-30T02:07:38;5.10;99.90
59282;DHT22;45054;52.062;10.010;2023-04-30T02:10:04;5.00;99.90
59282;DHT22;45054;52.062;10.010;2023-04-30T02:12:29;5.00;99.90
59282;DHT22;45054;52.062;10.010;2023-04-30T02:14:55;4.90;99.90
59282;DHT22;45054;52.062;10.010;2023-04-30T02:17:20;4.90;99.90
59282;DHT22;45054;52.062;10.010;2023-04-30T02:19:47;4.90;99.90
59282;DHT22;45054;52.062;10.010;2023-04-30T02:22:12;4.90;99.90
59282;DHT22;45054;52.062;10.010;2023-04-30T02:24:38;4.80;99.90
59282;DHT22;45054;52.062;10.010;2023-04-30T02:27:03;4.70;99.90
59282;DHT22;45054;52.062;10.010;2023-04-30T02:29:29;4.70;99.90
59282;DHT22;45054;52.062;10.010;2023-04-30T02:31:56;4.60;99.90
59282;DHT22;45054;52.062;10.010;2023-04-30T02:34:21;4.50;99.90
59282;DHT22;45054;52.062;10.010;2023-04-30T02:36:48;4.40;99.90
59282;DHT22;45054;52.062;10.010;2023-04-30T02:39:13;4.40;99.90
59282;DHT22;45054;52.062;10.010;2023-04-30T02:41:39;4.40;99.90
59282;DHT22;45054;52.062;10.010;2023-04-30T02:44:04;4.40;99.90
59282;DHT22;45054;52.062;10.010;2023-04-30T02:46:30;4.30;99.90
59282;DHT22;45054;52.062;10.010;2023-04-30T02:48:55;4.30;99.90
59282;DHT22;45054;52.062;10.010;2023-04-30T02:51:21;4.30;99.90
59282;DHT22;45054;52.062;10.010;2023-04-30T02:53:47;4.30;99.90
59282;DHT22;45054;52.062;10.010;2023-04-30T02:56:13;4.30;99.90
59282;DHT22;45054;52.062;10.010;2023-04-30T02:58:38;4.20;99.90
59282;DHT22;45054;52.062;10.010;2023-04-30T03:01:04;4.20;99.90
59282;DHT22;45054;52.062;10.010;2023-04-30T03:03:29;4.20;99.90
59282;DHT22;45054;52.062;10.010;2023-04-30T03:05:55;4.30;99.90
59282;DHT22;45054;52.062;10.010;2023-04-30T03:08:20;4.30;99.90
59282;DHT22;45054;52.062;10.010;2023-04-30T03:10:47;4.30;99.90
59282;DHT22;45054;52.062;10.010;2023-04-30T03:13:13;4.30;99.90
59282;DHT22;45054;52.062;10.010;2023-04-30T03:15:38;4.20;99.90
59282;DHT22;45054;52.062;10.010;2023-04-30T03:18:04;4.20;99.90
59282;DHT22;45054;52.062;10.010;2023-04-30T03:20:30;4.20;99.90
59282;DHT22;45054;52.062;10.010;2023-04-30T03:22:55;4.20;99.90
59282;DHT22;45054;52.062;10.010;2023-04-30T03:25:20;4.20;99.90
59282;DHT22;45054;52.062;10.010;2023-04-30T03:27:47;4.20;99.90
59282;DHT22;45054;52.062;10.010;2023-04-30T03:30:13;4.20;99.90
59282;DHT22;45054;52.062;10.010;2023-04-30T03:32:38;4.20;99.90
59282;DHT22;45054;52.062;10.010;2023-04-30T03:35:04;4.20;99.90
59282;DHT22;45054;52.062;10.010;2023-04-30T03:37:29;4.20;99.90
59282;DHT22;45054;52.062;10.010;2023-04-30T03:39:55;4.20;99.90
59282;DHT22;45054;52.062;10.010;2023-04-30T03:42:20;4.20;99.90
59282;DHT22;45054;52.062;10.010;2023-04-30T03:44:47;4.20;99.90
59282;DHT22;45054;52.062;10.010;2023-04-30T03:47:13;4.20;99.90
59282;DHT22;45054;52.062;10.010;2023-04-30T03:49:38;4.20;99.90
59282;DHT22;45054;52.062;10.010;2023-04-30T03:52:04;4.10;99.90
59282;DHT22;45054;52.062;10.010;2023-04-30T03:54:29;4.00;99.90
59282;DHT22;45054;52.062;10.010;2023-04-30T03:56:54;3.80;99.90
59282;DHT22;45054;52.062;10.010;2023-04-30T03:59:20;3.90;99.90
59282;DHT22;45054;52.062;10.010;2023-04-30T04:01:47;3.90;99.90
59282;DHT22;45054;52.062;10.010;2023-04-30T04:04:12;4.00;99.90
59282;DHT22;45054;52.062;10.010;2023-04-30T04:06:38;3.90;99.90
59282;DHT22;45054;52.062;10.010;2023-04-30T04:09:03;3.80;99.90
59282;DHT22;45054;52.062;10.010;2023-04-30T04:11:29;3.70;99.90
59282;DHT22;45054;52.062;10.010;2023-04-30T04:13:54;3.70;99.90
59282;DHT22;45054;52.062;10.010;2023-04-30T04:16:19;3.70;99.90
59282;DHT22;45054;52.062;10.010;2023-04-30T04:18:46;3.80;99.90
59282;DHT22;45054;52.062;10.010;2023-04-30T04:21:12;3.70;99.90
59282;DHT22;45054;52.062;10.010;2023-04-30T04:23:37;3.70;99.90
59282;DHT22;45054;52.062;10.010;2023-04-30T04:26:03;3.60;99.90
59282;DHT22;45054;52.062;10.010;2023-04-30T04:28:28;3.50;99.90
59282;DHT22;45054;52.062;10.010;2023-04-30T04:30:53;3.50;99.90
59282;DHT22;45054;52.062;10.010;2023-04-30T04:33:19;3.50;99.90
59282;DHT22;45054;52.062;10.010;2023-04-30T04:35:46;3.60;99.90
59282;DHT22;45054;52.062;10.010;2023-04-30T04:38:11;3.50;99.90
59282;DHT22;45054;52.062;10.010;2023-04-30T04:40:37;3.50;99.90
59282;DHT22;45054;52.062;10.010;2023-04-30T04:43:02;3.40;99.90
59282;DHT22;45054;52.062;10.010;2023-04-30T04:45:28;3.40;99.90
59282;DHT22;45054;52.062;10.010;2023-04-30T04:47:53;3.40;99.90
59282;DHT22;45054;52.062;10.010;2023-04-30T04:50:18;3.40;99.90
59282;DHT22;45054;52.062;10.010;2023-04-30T04:52:45;3.50;99.90
59282;DHT22;45054;52.062;10.010;2023-04-30T04:55:11;3.50;99.90
59282;DHT22;45054;52.062;10.010;2023-04-30T04:57:36;3.60;99.90
59282;DHT22;45054;52.062;10.010;2023-04-30T05:00:02;3.60;99.90
59282;DHT22;45054;52.062;10.010;2023-04-30T05:02:27;3.70;99.90
59282;DHT22;45054;52.062;10.010;2023-04-30T05:04:53;3.70;99.90
59282;DHT22;45054;52.062;10.010;2023-04-30T05:07:18;3.80;99.90
59282;DHT22;45054;52.062;10.010;2023-04-30T05:09:45;3.80;99.90
59282;DHT22;45054;52.062;10.010;2023-04-30T05:12:11;3.80;99.90
59282;DHT22;45054;52.062;10.010;2023-04-30T05:14:36;3.80;99.90
59282;DHT22;45054;52.062;10.010;2023-04-30T05:17:01;3.90;99.90
59282;DHT22;45054;52.062;10.010;2023-04-30T05:19:27;3.90;99.90
59282;DHT22;45054;52.062;10.010;2023-04-30T05:21:52;3.90;99.90
59282;DHT22;45054;52.062;10.010;2023-04-30T05:24:18;3.90;99.90
59282;DHT22;45054;52.062;10.010;2023-04-30T05:26:45;3.90;99.90
59282;DHT22;45054;52.062;10.010;2023-04-30T05:29:10;3.90;99.90
59282;DHT22;45054;52.062;10.010;2023-04-30T05:31:36;3.90;99.90
59282;DHT22;45054;52.062;10.010;2023-04-30T05:34:01;4.00;99.90
59282;DHT22;45054;52.062;10.010;2023-04-30T05:36:27;4.00;99.90
59282;DHT22;45054;52.062;10.010;2023-04-30T05:38:52;4.10;99.90
59282;DHT22;45054;52.062;10.010;2023-04-30T05:41:17;4.10;99.90
59282;DHT22;45054;52.062;10.010;2023-04-30T05:43:44;4.20;99.90
59282;DHT22;45054;52.062;10.010;2023-04-30T05:46:10;4.20;99.90
59282;DHT22;45054;52.062;10.010;2023-04-30T05:48:35;4.30;99.90
59282;DHT22;45054;52.062;10.010;2023-04-30T05:51:00;4.40;99.90
59282;DHT22;45054;52.062;10.010;2023-04-30T05:53:26;4.50;99.90
59282;DHT22;45054;52.062;10.010;2023-04-30T05:55:51;4.60;99.90
59282;DHT22;45054;52.062;10.010;2023-04-30T05:58:17;4.70;99.90
59282;DHT22;45054;52.062;10.010;2023-04-30T06:00:44;4.80;99.90
59282;DHT22;45054;52.062;10.010;2023-04-30T06:03:12;4.90;99.90
59282;DHT22;45054;52.062;10.010;2023-04-30T06:05:38;5.00;99.90
59282;DHT22;45054;52.062;10.010;2023-04-30T06:08:03;5.10;99.90
59282;DHT22;45054;52.062;10.010;2023-04-30T06:10:29;5.20;99.90
59282;DHT22;45054;52.062;10.010;2023-04-30T06:12:54;5.20;99.90
59282;DHT22;45054;52.062;10.010;2023-04-30T06:15:20;5.30;99.90
59282;DHT22;45054;52.062;10.010;2023-04-30T06:17:47;5.40;99.90
59282;DHT22;45054;52.062;10.010;2023-04-30T06:20:12;5.40;99.90
59282;DHT22;45054;52.062;10.010;2023-04-30T06:22:38;5.40;99.90
59282;DHT22;45054;52.062;10.010;2023-04-30T06:25:04;5.50;99.90
59282;DHT22;45054;52.062;10.010;2023-04-30T06:27:29;5.60;99.90
59282;DHT22;45054;52.062;10.010;2023-04-30T06:29:55;5.60;99.90
59282;DHT22;45054;52.062;10.010;2023-04-30T06:32:20;5.70;99.90
59282;DHT22;45054;52.062;10.010;2023-04-30T06:34:47;5.70;99.90
59282;DHT22;45054;52.062;10.010;2023-04-30T06:37:12;5.80;99.90
59282;DHT22;45054;52.062;10.010;2023-04-30T06:39:38;5.90;99.90
59282;DHT22;45054;52.062;10.010;2023-04-30T06:42:03;6.00;99.90
59282;DHT22;45054;52.062;10.010;2023-04-30T06:44:29;6.10;99.90
59282;DHT22;45054;52.062;10.010;2023-04-30T06:46:54;6.20;99.90
59282;DHT22;45054;52.062;10.010;2023-04-30T06:49:19;6.40;99.90
59282;DHT22;45054;52.062;10.010;2023-04-30T06:51:46;6.40;99.90
59282;DHT22;45054;52.062;10.010;2023-04-30T06:54:12;6.50;99.90
59282;DHT22;45054;52.062;10.010;2023-04-30T06:56:37;6.60;99.90
59282;DHT22;45054;52.062;10.010;2023-04-30T06:59:03;6.60;99.90
59282;DHT22;45054;52.062;10.010;2023-04-30T07:01:28;6.70;99.90
59282;DHT22;45054;52.062;10.010;2023-04-30T07:03:53;6.70;99.90
59282;DHT22;45054;52.062;10.010;2023-04-30T07:06:19;6.80;99.90
59282;DHT22;45054;52.062;10.010;2023-04-30T07:08:46;6.90;99.90
59282;DHT22;45054;52.062;10.010;2023-04-30T07:11:11;7.00;99.90
59282;DHT22;45054;52.062;10.010;2023-04-30T07:13:36;7.10;99.90
59282;DHT22;45054;52.062;10.010;2023-04-30T07:16:02;7.20;99.90
59282;DHT22;45054;52.062;10.010;2023-04-30T07:18:28;7.30;99.90
59282;DHT22;45054;52.062;10.010;2023-04-30T07:20:53;7.30;99.90
59282;DHT22;45054;52.062;10.010;2023-04-30T07:23:18;7.40;99.90
59282;DHT22;45054;52.062;10.010;2023-04-30T07:25:45;7.40;99.90
59282;DHT22;45054;52.062;10.010;2023-04-30T07:28:11;7.50;99.90
59282;DHT22;45054;52.062;10.010;2023-04-30T07:30:36;7.50;99.90
59282;DHT22;45054;52.062;10.010;2023-04-30T07:33:02;7.60;99.90
59282;DHT22;45054;52.062;10.010;2023-04-30T07:35:27;7.70;99.90
59282;DHT22;45054;52.062;10.010;2023-04-30T07:37:52;7.70;99.90
59282;DHT22;45054;52.062;10.010;2023-04-30T07:40:18;7.70;99.90
59282;DHT22;45054;52.062;10.010;2023-04-30T07:42:45;7.70;99.90
59282;DHT22;45054;52.062;10.010;2023-04-30T07:45:10;7.70;99.90
59282;DHT22;45054;52.062;10.010;2023-04-30T07:47:35;7.70;99.90
59282;DHT22;45054;52.062;10.010;2023-04-30T07:50:01;7.70;99.90
59282;DHT22;45054;52.062;10.010;2023-04-30T07:52:26;7.70;99.90
59282;DHT22;45054;52.062;10.010;2023-04-30T07:54:52;7.80;99.90
59282;DHT22;45054;52.062;10.010;2023-04-30T07:57:17;7.80;99.90
59282;DHT22;45054;52.062;10.010;2023-04-30T07:59:44;7.80;99.90
59282;DHT22;45054;52.062;10.010;2023-04-30T08:02:09;7.90;99.90
59282;DHT22;45054;52.062;10.010;2023-04-30T08:04:35;8.00;99.90
59282;DHT22;45054;52.062;10.010;2023-04-30T08:07:00;8.00;99.90
59282;DHT22;45054;52.062;10.010;2023-04-30T08:09:26;8.00;99.90
59282;DHT22;45054;52.062;10.010;2023-04-30T08:11:51;8.10;99.90
59282;DHT22;45054;52.062;10.010;2023-04-30T08:14:17;8.10;99.90
59282;DHT22;45054;52.062;10.010;2023-04-30T08:16:43;8.20;99.90
59282;DHT22;45054;52.062;10.010;2023-04-30T08:19:09;8.20;99.90
59282;DHT22;45054;52.062;10.010;2023-04-30T08:21:34;8.30;99.90
59282;DHT22;45054;52.062;10.010;2023-04-30T08:24:00;8.30;99.90
59282;DHT22;45054;52.062;10.010;2023-04-30T08:26:25;8.40;99.90
59282;DHT22;45054;52.062;10.010;2023-04-30T08:28:51;8.40;99.90
59282;DHT22;45054;52.062;10.010;2023-04-30T08:31:16;8.40;99.90
59282;DHT22;45054;52.062;10.010;2023-04-30T08:33:43;8.40;99.90
59282;DHT22;45054;52.062;10.010;2023-04-30T08:36:09;8.60;99.90
59282;DHT22;45054;52.062;10.010;2023-04-30T08:38:34;8.70;99.90
59282;DHT22;45054;52.062;10.010;2023-04-30T08:41:04;8.70;99.90
59282;DHT22;45054;52.062;10.010;2023-04-30T08:43:29;8.70;99.90
59282;DHT22;45054;52.062;10.010;2023-04-30T08:45:55;8.70;99.90
59282;DHT22;45054;52.062;10.010;2023-04-30T08:48:21;8.80;99.90
59282;DHT22;45054;52.062;10.010;2023-04-30T08:50:49;8.90;99.90
59282;DHT22;45054;52.062;10.010;2023-04-30T08:53:14;9.00;99.90
59282;DHT22;45054;52.062;10.010;2023-04-30T08:55:40;9.10;99.90
59282;DHT22;45054;52.062;10.010;2023-04-30T08:58:06;9.10;99.90
59282;DHT22;45054;52.062;10.010;2023-04-30T09:00:31;9.10;99.90
59282;DHT22;45054;52.062;10.010;2023-04-30T09:02:59;9.00;99.90
59282;DHT22;45054;52.062;10.010;2023-04-30T09:05:25;9.20;99.90
59282;DHT22;45054;52.062;10.010;2023-04-30T09:07:52;9.30;99.90
59282;DHT22;45054;52.062;10.010;2023-04-30T09:10:18;9.30;99.90
59282;DHT22;45054;52.062;10.010;2023-04-30T09:12:44;9.30;99.90
59282;DHT22;45054;52.062;10.010;2023-04-30T09:15:22;9.30;99.90
59282;DHT22;45054;52.062;10.010;2023-04-30T09:17:47;9.40;99.90
59282;DHT22;45054;52.062;10.010;2023-04-30T09:20:13;9.40;99.90
59282;DHT22;45054;52.062;10.010;2023-04-30T09:22:39;9.40;99.90
59282;DHT22;45054;52.062;10.010;2023-04-30T09:25:07;9.40;99.90
59282;DHT22;45054;52.062;10.010;2023-04-30T09:27:33;9.50;99.90
59282;DHT22;45054;52.062;10.010;2023-04-30T09:29:58;9.60;99.90
59282;DHT22;45054;52.062;10.010;2023-04-30T09:32:23;9.70;99.90
59282;DHT22;45054;52.062;10.010;2023-04-30T09:34:49;9.80;99.90
59282;DHT22;45054;52.062;10.010;2023-04-30T09:37:14;9.90;99.90
59282;DHT22;45054;52.062;10.010;2023-04-30T09:39:46;9.90;99.90
59282;DHT22;45054;52.062;10.010;2023-04-30T09:42:13;10.00;99.90
59282;DHT22;45054;52.062;10.010;2023-04-30T09:44:39;10.10;99.90
59282;DHT22;45054;52.062;10.010;2023-04-30T09:47:09;10.20;99.90
59282;DHT22;45054;52.062;10.010;2023-04-30T09:49:36;10.20;99.90
59282;DHT22;45054;52.062;10.010;2023-04-30T09:52:01;10.10;99.90
59282;DHT22;45054;52.062;10.010;2023-04-30T09:54:27;10.10;99.90
59282;DHT22;45054;52.062;10.010;2023-04-30T09:56:53;10.10;99.90
59282;DHT22;45054;52.062;10.010;2023-04-30T09:59:20;10.20;99.90
59282;DHT22;45054;52.062;10.010;2023-04-30T10:01:46;10.30;99.90
59282;DHT22;45054;52.062;10.010;2023-04-30T10:04:12;10.20;99.90
59282;DHT22;45054;52.062;10.010;2023-04-30T10:06:38;10.40;99.90
59282;DHT22;45054;52.062;10.010;2023-04-30T10:09:03;10.40;99.90
59282;DHT22;45054;52.062;10.010;2023-04-30T10:11:29;10.50;99.90
59282;DHT22;45054;52.062;10.010;2023-04-30T10:13:57;10.50;99.90
59282;DHT22;45054;52.062;10.010;2023-04-30T10:16:29;10.60;99.90
59282;DHT22;45054;52.062;10.010;2023-04-30T10:18:58;10.60;99.90
59282;DHT22;45054;52.062;10.010;2023-04-30T10:21:24;10.60;99.90
59282;DHT22;45054;52.062;10.010;2023-04-30T10:23:51;10.60;99.90
59282;DHT22;45054;52.062;10.010;2023-04-30T10:26:17;10.50;99.90
59282;DHT22;45054;52.062;10.010;2023-04-30T10:28:42;10.60;99.90
59282;DHT22;45054;52.062;10.010;2023-04-30T10:31:08;10.60;99.90
59282;DHT22;45054;52.062;10.010;2023-04-30T10:33:39;10.60;99.90
59282;DHT22;45054;52.062;10.010;2023-04-30T10:36:06;10.80;99.90
59282;DHT22;45054;52.062;10.010;2023-04-30T10:38:35;10.90;99.90
59282;DHT22;45054;52.062;10.010;2023-04-30T10:41:05;10.80;99.90
59282;DHT22;45054;52.062;10.010;2023-04-30T10:43:31;11.00;99.90
59282;DHT22;45054;52.062;10.010;2023-04-30T10:45:56;11.10;99.90
59282;DHT22;45054;52.062;10.010;2023-04-30T10:48:22;11.30;99.90
59282;DHT22;45054;52.062;10.010;2023-04-30T10:50:49;11.60;99.90
59282;DHT22;45054;52.062;10.010;2023-04-30T10:53:16;11.70;99.90
59282;DHT22;45054;52.062;10.010;2023-04-30T10:55:45;11.70;99.90
59282;DHT22;45054;52.062;10.010;2023-04-30T10:58:21;11.60;99.90
59282;DHT22;45054;52.062;10.010;2023-04-30T11:00:50;11.50;99.90
59282;DHT22;45054;52.062;10.010;2023-04-30T11:03:15;11.40;99.90
59282;DHT22;45054;52.062;10.010;2023-04-30T11:05:41;11.30;99.90
59282;DHT22;45054;52.062;10.010;2023-04-30T11:08:11;11.30;99.90
59282;DHT22;45054;52.062;10.010;2023-04-30T11:10:36;11.40;99.90
59282;DHT22;45054;52.062;10.010;2023-04-30T11:13:02;11.40;99.90
59282;DHT22;45054;52.062;10.010;2023-04-30T11:15:32;11.60;99.90
59282;DHT22;45054;52.062;10.010;2023-04-30T11:17:57;11.60;99.90
59282;DHT22;45054;52.062;10.010;2023-04-30T11:20:23;11.70;99.90
59282;DHT22;45054;52.062;10.010;2023-04-30T11:25:31;11.80;99.90
59282;DHT22;45054;52.062;10.010;2023-04-30T11:28:03;11.90;99.90
59282;DHT22;45054;52.062;10.010;2023-04-30T11:30:28;12.00;99.90
59282;DHT22;45054;52.062;10.010;2023-04-30T11:32:55;12.10;99.90
59282;DHT22;45054;52.062;10.010;2023-04-30T11:35:23;12.20;99.90
59282;DHT22;45054;52.062;10.010;2023-04-30T11:37:49;12.20;99.90
59282;DHT22;45054;52.062;10.010;2023-04-30T11:40:18;12.20;99.90
59282;DHT22;45054;52.062;10.010;2023-04-30T11:42:45;12.30;99.90
59282;DHT22;45054;52.062;10.010;2023-04-30T11:45:11;12.30;99.90
59282;DHT22;45054;52.062;10.010;2023-04-30T11:47:38;12.20;99.90
59282;DHT22;45054;52.062;10.010;2023-04-30T11:50:03;12.30;99.90
59282;DHT22;45054;52.062;10.010;2023-04-30T11:52:29;12.40;99.90
59282;DHT22;45054;52.062;10.010;2023-04-30T11:54:54;12.50;99.90
59282;DHT22;45054;52.062;10.010;2023-04-30T11:57:20;12.60;99.90
59282;DHT22;45054;52.062;10.010;2023-04-30T11:59:46;12.70;99.90
59282;DHT22;45054;52.062;10.010;2023-04-30T12:02:13;12.60;99.90
59282;DHT22;45054;52.062;10.010;2023-04-30T12:04:39;12.60;99.90
59282;DHT22;45054;52.062;10.010;2023-04-30T12:07:07;12.60;99.90
59282;DHT22;45054;52.062;10.010;2023-04-30T12:09:32;12.60;99.90
59282;DHT22;45054;52.062;10.010;2023-04-30T12:11:57;12.50;99.90
59282;DHT22;45054;52.062;10.010;2023-04-30T12:14:23;12.70;99.90
59282;DHT22;45054;52.062;10.010;2023-04-30T12:16:50;12.70;99.90
59282;DHT22;45054;52.062;10.010;2023-04-30T12:19:16;12.80;99.90
59282;DHT22;45054;52.062;10.010;2023-04-30T12:21:42;12.80;99.90
59282;DHT22;45054;52.062;10.010;2023-04-30T12:24:08;12.90;99.90
59282;DHT22;45054;52.062;10.010;2023-04-30T12:26:35;12.90;99.90
59282;DHT22;45054;52.062;10.010;2023-04-30T12:29:01;13.00;99.90
59282;DHT22;45054;52.062;10.010;2023-04-30T12:31:27;13.20;99.90
59282;DHT22;45054;52.062;10.010;2023-04-30T12:33:56;13.40;99.90
59282;DHT22;45054;52.062;10.010;2023-04-30T12:36:28;13.40;99.90
59282;DHT22;45054;52.062;10.010;2023-04-30T12:39:00;13.40;99.90
59282;DHT22;45054;52.062;10.010;2023-04-30T12:41:27;13.50;99.90
59282;DHT22;45054;52.062;10.010;2023-04-30T12:46:33;13.60;99.90
59282;DHT22;45054;52.062;10.010;2023-04-30T12:49:00;13.70;99.90
59282;DHT22;45054;52.062;10.010;2023-04-30T12:51:25;13.70;99.90
59282;DHT22;45054;52.062;10.010;2023-04-30T12:53:51;13.70;99.90
59282;DHT22;45054;52.062;10.010;2023-04-30T12:56:16;13.70;99.90
59282;DHT22;45054;52.062;10.010;2023-04-30T12:58:42;13.70;99.90
59282;DHT22;45054;52.062;10.010;2023-04-30T13:01:09;13.70;99.90
59282;DHT22;45054;52.062;10.010;2023-04-30T13:03:35;13.70;99.90
59282;DHT22;45054;52.062;10.010;2023-04-30T13:06:02;13.80;99.90
59282;DHT22;45054;52.062;10.010;2023-04-30T13:08:27;13.80;99.90
59282;DHT22;45054;52.062;10.010;2023-04-30T13:10:54;14.00;99.90
59282;DHT22;45054;52.062;10.010;2023-04-30T13:13:19;14.00;99.90
59282;DHT22;45054;52.062;10.010;2023-04-30T13:15:45;14.10;99.90
59282;DHT22;45054;52.062;10.010;2023-04-30T13:18:10;14.20;99.90
59282;DHT22;45054;52.062;10.010;2023-04-30T13:20:36;14.10;99.90
59282;DHT22;45054;52.062;10.010;2023-04-30T13:23:03;14.10;99.90
59282;DHT22;45054;52.062;10.010;2023-04-30T13:25:28;14.10;99.90
59282;DHT22;45054;52.062;10.010;2023-04-30T13:27:54;14.10;99.90
59282;DHT22;45054;52.062;10.010;2023-04-30T13:30:19;14.20;99.90
59282;DHT22;45054;52.062;10.010;2023-04-30T13:32:45;14.20;99.90
59282;DHT22;45054;52.062;10.010;2023-04-30T13:35:10;14.10;99.90
59282;DHT22;45054;52.062;10.010;2023-04-30T13:37:36;14.20;99.90
59282;DHT22;45054;52.062;10.010;2023-04-30T13:40:03;14.20;99.90
59282;DHT22;45054;52.062;10.010;2023-04-30T13:42:28;14.20;99.90
59282;DHT22;45054;52.062;10.010;2023-04-30T13:44:54;14.30;99.90
59282;DHT22;45054;52.062;10.010;2023-04-30T13:47:19;14.10;99.90
59282;DHT22;45054;52.062;10.010;2023-04-30T13:49:44;14.30;99.90
59282;DHT22;45054;52.062;10.010;2023-04-30T13:52:10;14.70;99.90
59282;DHT22;45054;52.062;10.010;2023-04-30T13:54:35;14.80;99.90
59282;DHT22;45054;52.062;10.010;2023-04-30T13:57:02;14.60;99.90
59282;DHT22;45054;52.062;10.010;2023-04-30T13:59:28;14.60;99.90
59282;DHT22;45054;52.062;10.010;2023-04-30T14:01:53;14.70;99.90
59282;DHT22;45054;52.062;10.010;2023-04-30T14:04:18;14.70;99.90
59282;DHT22;45054;52.062;10.010;2023-04-30T14:06:44;14.80;99.90
59282;DHT22;45054;52.062;10.010;2023-04-30T14:09:09;15.00;99.90
59282;DHT22;45054;52.062;10.010;2023-04-30T14:11:35;14.80;99.90
59282;DHT22;45054;52.062;10.010;2023-04-30T14:14:02;14.90;99.90
59282;DHT22;45054;52.062;10.010;2023-04-30T14:16:27;15.10;99.90
59282;DHT22;45054;52.062;10.010;2023-04-30T14:18:53;15.30;99.90
59282;DHT22;45054;52.062;10.010;2023-04-30T14:21:18;15.30;99.90
59282;DHT22;45054;52.062;10.010;2023-04-30T14:23:44;15.50;99.90
59282;DHT22;45054;52.062;10.010;2023-04-30T14:26:09;15.70;99.90
59282;DHT22;45054;52.062;10.010;2023-04-30T14:28:34;15.80;99.90
59282;DHT22;45054;52.062;10.010;2023-04-30T14:31:01;16.00;99.90
59282;DHT22;45054;52.062;10.010;2023-04-30T14:33:27;16.20;99.90
59282;DHT22;45054;52.062;10.010;2023-04-30T14:35:52;16.70;99.90
59282;DHT22;45054;52.062;10.010;2023-04-30T14:38:17;17.10;99.90
59282;DHT22;45054;52.062;10.010;2023-04-30T14:40:43;17.40;99.90
59282;DHT22;45054;52.062;10.010;2023-04-30T14:43:08;17.80;99.90
59282;DHT22;45054;52.062;10.010;2023-04-30T14:45:34;17.70;99.90
59282;DHT22;45054;52.062;10.010;2023-04-30T14:48:00;18.10;98.00
59282;DHT22;45054;52.062;10.010;2023-04-30T14:50:26;18.70;98.30
59282;DHT22;45054;52.062;10.010;2023-04-30T14:52:51;20.40;94.90
59282;DHT22;45054;52.062;10.010;2023-04-30T14:55:17;21.70;94.50
59282;DHT22;45054;52.062;10.010;2023-04-30T14:57:42;23.60;91.00
59282;DHT22;45054;52.062;10.010;2023-04-30T15:00:08;23.90;79.20
59282;DHT22;45054;52.062;10.010;2023-04-30T15:02:34;24.00;77.30
59282;DHT22;45054;52.062;10.010;2023-04-30T15:05:01;24.40;74.30
59282;DHT22;45054;52.062;10.010;2023-04-30T15:07:27;25.50;77.00
59282;DHT22;45054;52.062;10.010;2023-04-30T15:09:52;26.90;71.00
59282;DHT22;45054;52.062;10.010;2023-04-30T15:12:17;27.90;65.00
59282;DHT22;45054;52.062;10.010;2023-04-30T15:14:43;28.10;64.20
59282;DHT22;45054;52.062;10.010;2023-04-30T15:17:08;28.10;60.00
59282;DHT22;45054;52.062;10.010;2023-04-30T15:19:34;27.80;60.20
59282;DHT22;45054;52.062;10.010;2023-04-30T15:22:01;26.40;62.40
59282;DHT22;45054;52.062;10.010;2023-04-30T15:24:26;26.50;62.00